sensor_id;sensor_type;location;lat;lon;timestamp;P1;durP1;ratioP1;P2;durP2;ratioP2
57131;SDS011;43005;52.922;5.742;2023-11-19T00:01:27;51.88;;;46.03;;
57131;SDS011;43005;52.922;5.742;2023-11-19T00:03:56;50.30;;;43.67;;
57131;SDS011;43005;52.922;5.742;2023-11-19T00:06:23;52.03;;;46.25;;
57131;SDS011;43005;52.922;5.742;2023-11-19T00:08:50;52.22;;;44.42;;
57131;SDS011;43005;52.922;5.742;2023-11-19T00:11:17;61.58;;;43.00;;
57131;SDS011;43005;52.922;5.742;2023-11-19T00:13:44;53.47;;;43.67;;
57131;SDS011;43005;52.922;5.742;2023-11-19T00:16:11;59.95;;;42.78;;
57131;SDS011;43005;52.922;5.742;2023-11-19T00:18:38;54.33;;;43.63;;
57131;SDS011;43005;52.922;5.742;2023-11-19T00:21:07;48.25;;;42.90;;
57131;SDS011;43005;52.922;5.742;2023-11-19T00:23:35;53.50;;;41.97;;
57131;SDS011;43005;52.922;5.742;2023-11-19T00:26:02;52.70;;;43.47;;
57131;SDS011;43005;52.922;5.742;2023-11-19T00:28:31;60.97;;;40.55;;
57131;SDS011;43005;52.922;5.742;2023-11-19T00:30:58;57.88;;;39.92;;
57131;SDS011;43005;52.922;5.742;2023-11-19T00:33:25;61.15;;;39.83;;
57131;SDS011;43005;52.922;5.742;2023-11-19T00:35:52;47.72;;;39.38;;
57131;SDS011;43005;52.922;5.742;2023-11-19T00:38:20;43.40;;;38.80;;
57131;SDS011;43005;52.922;5.742;2023-11-19T00:40:47;52.10;;;38.50;;
57131;SDS011;43005;52.922;5.742;2023-11-19T00:43:14;58.30;;;44.65;;
57131;SDS011;43005;52.922;5.742;2023-11-19T00:45:41;50.40;;;42.95;;
57131;SDS011;43005;52.922;5.742;2023-11-19T00:48:08;48.13;;;41.72;;
57131;SDS011;43005;52.922;5.742;2023-11-19T00:50:35;55.30;;;42.63;;
57131;SDS011;43005;52.922;5.742;2023-11-19T00:53:02;50.42;;;42.35;;
57131;SDS011;43005;52.922;5.742;2023-11-19T00:55:31;46.92;;;41.92;;
57131;SDS011;43005;52.922;5.742;2023-11-19T00:57:58;54.38;;;43.70;;
57131;SDS011;43005;52.922;5.742;2023-11-19T01:00:25;58.60;;;42.83;;
57131;SDS011;43005;52.922;5.742;2023-11-19T01:02:52;53.53;;;43.50;;
57131;SDS011;43005;52.922;5.742;2023-11-19T01:05:19;51.92;;;43.63;;
57131;SDS011;43005;52.922;5.742;2023-11-19T01:07:48;60.22;;;42.58;;
57131;SDS011;43005;52.922;5.742;2023-11-19T01:10:15;60.08;;;42.85;;
57131;SDS011;43005;52.922;5.742;2023-11-19T01:12:45;53.85;;;45.05;;
57131;SDS011;43005;52.922;5.742;2023-11-19T01:15:12;60.40;;;44.28;;
57131;SDS011;43005;52.922;5.742;2023-11-19T01:17:39;52.70;;;41.72;;
57131;SDS011;43005;52.922;5.742;2023-11-19T01:20:06;52.13;;;42.85;;
57131;SDS011;43005;52.922;5.742;2023-11-19T01:22:37;56.20;;;41.78;;
57131;SDS011;43005;52.922;5.742;2023-11-19T01:25:04;51.15;;;41.03;;
57131;SDS011;43005;52.922;5.742;2023-11-19T01:27:32;51.40;;;43.13;;
57131;SDS011;43005;52.922;5.742;2023-11-19T01:30:02;51.22;;;42.75;;
57131;SDS011;43005;52.922;5.742;2023-11-19T01:32:31;47.78;;;37.95;;
57131;SDS011;43005;52.922;5.742;2023-11-19T01:34:58;47.90;;;41.10;;
57131;SDS011;43005;52.922;5.742;2023-11-19T01:37:26;51.40;;;37.85;;
57131;SDS011;43005;52.922;5.742;2023-11-19T01:39:53;43.65;;;35.95;;
57131;SDS011;43005;52.922;5.742;2023-11-19T01:42:20;53.35;;;38.22;;
57131;SDS011;43005;52.922;5.742;2023-11-19T01:44:54;53.80;;;36.35;;
57131;SDS011;43005;52.922;5.742;2023-11-19T01:47:25;54.13;;;38.65;;
57131;SDS011;43005;52.922;5.742;2023-11-19T01:49:54;58.97;;;40.05;;
57131;SDS011;43005;52.922;5.742;2023-11-19T01:52:23;49.17;;;37.30;;
57131;SDS011;43005;52.922;5.742;2023-11-19T01:54:51;48.55;;;37.13;;
57131;SDS011;43005;52.922;5.742;2023-11-19T01:57:20;46.67;;;35.60;;
57131;SDS011;43005;52.922;5.742;2023-11-19T01:59:49;49.78;;;36.67;;
57131;SDS011;43005;52.922;5.742;2023-11-19T02:02:17;52.03;;;37.45;;
57131;SDS011;43005;52.922;5.742;2023-11-19T02:04:46;44.55;;;34.83;;
57131;SDS011;43005;52.922;5.742;2023-11-19T02:07:14;42.25;;;30.95;;
57131;SDS011;43005;52.922;5.742;2023-11-19T02:09:42;37.83;;;28.08;;
57131;SDS011;43005;52.922;5.742;2023-11-19T02:12:09;33.88;;;28.00;;
57131;SDS011;43005;52.922;5.742;2023-11-19T02:14:37;37.90;;;28.95;;
57131;SDS011;43005;52.922;5.742;2023-11-19T02:17:05;43.38;;;25.42;;
57131;SDS011;43005;52.922;5.742;2023-11-19T02:19:33;36.53;;;25.33;;
57131;SDS011;43005;52.922;5.742;2023-11-19T02:22:02;37.63;;;24.20;;
57131;SDS011;43005;52.922;5.742;2023-11-19T02:24:29;39.88;;;24.27;;
57131;SDS011;43005;52.922;5.742;2023-11-19T02:27:02;43.67;;;23.67;;
57131;SDS011;43005;52.922;5.742;2023-11-19T02:29:36;43.25;;;21.65;;
57131;SDS011;43005;52.922;5.742;2023-11-19T02:32:03;41.22;;;19.75;;
57131;SDS011;43005;52.922;5.742;2023-11-19T02:34:34;54.95;;;18.42;;
57131;SDS011;43005;52.922;5.742;2023-11-19T02:37:03;40.28;;;17.75;;
57131;SDS011;43005;52.922;5.742;2023-11-19T02:39:30;37.03;;;17.63;;
57131;SDS011;43005;52.922;5.742;2023-11-19T02:41:57;48.60;;;17.45;;
57131;SDS011;43005;52.922;5.742;2023-11-19T02:44:25;40.88;;;16.50;;
57131;SDS011;43005;52.922;5.742;2023-11-19T02:46:54;39.28;;;17.83;;
57131;SDS011;43005;52.922;5.742;2023-11-19T02:49:24;39.92;;;18.83;;
57131;SDS011;43005;52.922;5.742;2023-11-19T02:51:51;30.15;;;16.30;;
57131;SDS011;43005;52.922;5.742;2023-11-19T02:54:18;49.40;;;17.30;;
57131;SDS011;43005;52.922;5.742;2023-11-19T02:56:46;41.20;;;16.33;;
57131;SDS011;43005;52.922;5.742;2023-11-19T02:59:20;30.77;;;16.30;;
57131;SDS011;43005;52.922;5.742;2023-11-19T03:01:52;37.28;;;15.98;;
57131;SDS011;43005;52.922;5.742;2023-11-19T03:04:21;42.13;;;17.00;;
57131;SDS011;43005;52.922;5.742;2023-11-19T03:06:48;38.20;;;15.35;;
57131;SDS011;43005;52.922;5.742;2023-11-19T03:09:15;48.25;;;16.25;;
57131;SDS011;43005;52.922;5.742;2023-11-19T03:11:42;35.30;;;13.30;;
57131;SDS011;43005;52.922;5.742;2023-11-19T03:14:09;45.65;;;14.57;;
57131;SDS011;43005;52.922;5.742;2023-11-19T03:16:37;42.92;;;14.57;;
57131;SDS011;43005;52.922;5.742;2023-11-19T03:19:04;46.38;;;12.98;;
57131;SDS011;43005;52.922;5.742;2023-11-19T03:21:32;51.60;;;15.20;;
57131;SDS011;43005;52.922;5.742;2023-11-19T03:23:59;32.47;;;15.13;;
57131;SDS011;43005;52.922;5.742;2023-11-19T03:26:26;40.08;;;13.93;;
57131;SDS011;43005;52.922;5.742;2023-11-19T03:28:53;41.88;;;13.55;;
57131;SDS011;43005;52.922;5.742;2023-11-19T03:31:22;36.05;;;13.70;;
57131;SDS011;43005;52.922;5.742;2023-11-19T03:33:50;38.95;;;13.55;;
57131;SDS011;43005;52.922;5.742;2023-11-19T03:36:19;37.30;;;12.27;;
57131;SDS011;43005;52.922;5.742;2023-11-19T03:38:47;41.42;;;12.52;;
57131;SDS011;43005;52.922;5.742;2023-11-19T03:41:14;30.73;;;12.00;;
57131;SDS011;43005;52.922;5.742;2023-11-19T03:43:42;33.63;;;10.93;;
57131;SDS011;43005;52.922;5.742;2023-11-19T03:46:16;41.70;;;14.00;;
57131;SDS011;43005;52.922;5.742;2023-11-19T03:48:44;34.40;;;11.73;;
57131;SDS011;43005;52.922;5.742;2023-11-19T03:51:12;38.63;;;11.77;;
57131;SDS011;43005;52.922;5.742;2023-11-19T03:53:40;40.75;;;11.65;;
57131;SDS011;43005;52.922;5.742;2023-11-19T03:56:09;36.80;;;10.88;;
57131;SDS011;43005;52.922;5.742;2023-11-19T03:58:37;32.58;;;11.20;;
57131;SDS011;43005;52.922;5.742;2023-11-19T04:01:03;43.10;;;11.38;;
57131;SDS011;43005;52.922;5.742;2023-11-19T04:03:30;37.47;;;11.82;;
57131;SDS011;43005;52.922;5.742;2023-11-19T04:05:58;48.78;;;12.13;;
57131;SDS011;43005;52.922;5.742;2023-11-19T04:08:25;47.17;;;10.07;;
57131;SDS011;43005;52.922;5.742;2023-11-19T04:10:52;51.55;;;11.38;;
57131;SDS011;43005;52.922;5.742;2023-11-19T04:13:20;46.58;;;10.43;;
57131;SDS011;43005;52.922;5.742;2023-11-19T04:15:49;34.85;;;9.90;;
57131;SDS011;43005;52.922;5.742;2023-11-19T04:18:16;42.88;;;10.32;;
57131;SDS011;43005;52.922;5.742;2023-11-19T04:20:43;37.85;;;10.57;;
57131;SDS011;43005;52.922;5.742;2023-11-19T04:23:10;48.17;;;10.25;;
57131;SDS011;43005;52.922;5.742;2023-11-19T04:25:39;41.10;;;9.38;;
57131;SDS011;43005;52.922;5.742;2023-11-19T04:28:06;45.53;;;9.75;;
57131;SDS011;43005;52.922;5.742;2023-11-19T04:30:34;36.85;;;11.00;;
57131;SDS011;43005;52.922;5.742;2023-11-19T04:33:02;24.20;;;8.55;;
57131;SDS011;43005;52.922;5.742;2023-11-19T04:35:30;45.72;;;11.75;;
57131;SDS011;43005;52.922;5.742;2023-11-19T04:37:57;35.25;;;10.15;;
57131;SDS011;43005;52.922;5.742;2023-11-19T04:40:24;46.15;;;9.95;;
57131;SDS011;43005;52.922;5.742;2023-11-19T04:42:51;36.47;;;10.32;;
57131;SDS011;43005;52.922;5.742;2023-11-19T04:45:19;38.28;;;9.55;;
57131;SDS011;43005;52.922;5.742;2023-11-19T04:47:47;40.17;;;9.20;;
57131;SDS011;43005;52.922;5.742;2023-11-19T04:50:14;37.03;;;9.32;;
57131;SDS011;43005;52.922;5.742;2023-11-19T04:52:41;46.85;;;10.32;;
57131;SDS011;43005;52.922;5.742;2023-11-19T04:55:10;27.80;;;9.23;;
57131;SDS011;43005;52.922;5.742;2023-11-19T04:57:39;43.95;;;10.00;;
57131;SDS011;43005;52.922;5.742;2023-11-19T05:00:06;26.85;;;7.35;;
57131;SDS011;43005;52.922;5.742;2023-11-19T05:02:35;36.28;;;8.95;;
57131;SDS011;43005;52.922;5.742;2023-11-19T05:05:04;39.30;;;8.90;;
57131;SDS011;43005;52.922;5.742;2023-11-19T05:07:31;36.85;;;8.05;;
57131;SDS011;43005;52.922;5.742;2023-11-19T05:09:58;43.00;;;9.48;;
57131;SDS011;43005;52.922;5.742;2023-11-19T05:12:25;37.03;;;8.23;;
57131;SDS011;43005;52.922;5.742;2023-11-19T05:14:52;40.80;;;9.00;;
57131;SDS011;43005;52.922;5.742;2023-11-19T05:17:19;36.42;;;8.63;;
57131;SDS011;43005;52.922;5.742;2023-11-19T05:19:46;33.72;;;8.40;;
57131;SDS011;43005;52.922;5.742;2023-11-19T05:22:15;41.65;;;8.07;;
57131;SDS011;43005;52.922;5.742;2023-11-19T05:24:43;31.02;;;8.32;;
57131;SDS011;43005;52.922;5.742;2023-11-19T05:27:10;34.63;;;8.95;;
57131;SDS011;43005;52.922;5.742;2023-11-19T05:29:38;30.08;;;8.13;;
57131;SDS011;43005;52.922;5.742;2023-11-19T05:32:06;39.00;;;8.25;;
57131;SDS011;43005;52.922;5.742;2023-11-19T05:34:33;37.15;;;8.60;;
57131;SDS011;43005;52.922;5.742;2023-11-19T05:37:00;43.90;;;9.48;;
57131;SDS011;43005;52.922;5.742;2023-11-19T05:39:29;33.45;;;9.02;;
57131;SDS011;43005;52.922;5.742;2023-11-19T05:41:56;32.60;;;8.18;;
57131;SDS011;43005;52.922;5.742;2023-11-19T05:44:23;36.88;;;8.57;;
57131;SDS011;43005;52.922;5.742;2023-11-19T05:46:49;41.35;;;8.55;;
57131;SDS011;43005;52.922;5.742;2023-11-19T05:49:18;41.88;;;9.13;;
57131;SDS011;43005;52.922;5.742;2023-11-19T05:51:45;29.08;;;7.75;;
57131;SDS011;43005;52.922;5.742;2023-11-19T05:54:12;36.88;;;8.57;;
57131;SDS011;43005;52.922;5.742;2023-11-19T05:56:40;49.83;;;9.85;;
57131;SDS011;43005;52.922;5.742;2023-11-19T05:59:07;33.85;;;8.52;;
57131;SDS011;43005;52.922;5.742;2023-11-19T06:01:40;32.17;;;7.70;;
57131;SDS011;43005;52.922;5.742;2023-11-19T06:04:07;49.00;;;9.73;;
57131;SDS011;43005;52.922;5.742;2023-11-19T06:06:35;33.75;;;8.32;;
57131;SDS011;43005;52.922;5.742;2023-11-19T06:09:02;30.08;;;7.35;;
57131;SDS011;43005;52.922;5.742;2023-11-19T06:11:31;33.88;;;8.07;;
57131;SDS011;43005;52.922;5.742;2023-11-19T06:13:59;33.58;;;8.38;;
57131;SDS011;43005;52.922;5.742;2023-11-19T06:16:26;48.83;;;8.85;;
57131;SDS011;43005;52.922;5.742;2023-11-19T06:18:52;39.90;;;8.45;;
57131;SDS011;43005;52.922;5.742;2023-11-19T06:21:19;47.05;;;9.32;;
57131;SDS011;43005;52.922;5.742;2023-11-19T06:23:46;30.90;;;7.80;;
57131;SDS011;43005;52.922;5.742;2023-11-19T06:26:14;39.70;;;8.10;;
57131;SDS011;43005;52.922;5.742;2023-11-19T06:28:41;39.13;;;7.85;;
57131;SDS011;43005;52.922;5.742;2023-11-19T06:31:09;40.80;;;7.60;;
57131;SDS011;43005;52.922;5.742;2023-11-19T06:33:36;39.90;;;8.68;;
57131;SDS011;43005;52.922;5.742;2023-11-19T06:36:03;39.75;;;8.57;;
57131;SDS011;43005;52.922;5.742;2023-11-19T06:38:30;42.65;;;7.95;;
57131;SDS011;43005;52.922;5.742;2023-11-19T06:40:57;32.70;;;7.00;;
57131;SDS011;43005;52.922;5.742;2023-11-19T06:43:24;31.25;;;7.85;;
57131;SDS011;43005;52.922;5.742;2023-11-19T06:45:51;36.90;;;8.77;;
57131;SDS011;43005;52.922;5.742;2023-11-19T06:48:19;44.53;;;8.15;;
57131;SDS011;43005;52.922;5.742;2023-11-19T06:50:46;38.28;;;8.10;;
57131;SDS011;43005;52.922;5.742;2023-11-19T06:53:14;27.02;;;7.13;;
57131;SDS011;43005;52.922;5.742;2023-11-19T06:55:41;38.72;;;8.55;;
57131;SDS011;43005;52.922;5.742;2023-11-19T06:58:08;30.45;;;7.40;;
57131;SDS011;43005;52.922;5.742;2023-11-19T07:00:35;40.85;;;8.50;;
57131;SDS011;43005;52.922;5.742;2023-11-19T07:03:02;36.60;;;8.82;;
57131;SDS011;43005;52.922;5.742;2023-11-19T07:05:30;33.20;;;7.30;;
57131;SDS011;43005;52.922;5.742;2023-11-19T07:07:57;39.75;;;6.97;;
57131;SDS011;43005;52.922;5.742;2023-11-19T07:10:24;32.95;;;6.63;;
57131;SDS011;43005;52.922;5.742;2023-11-19T07:12:51;36.47;;;7.90;;
57131;SDS011;43005;52.922;5.742;2023-11-19T07:15:17;34.05;;;8.55;;
57131;SDS011;43005;52.922;5.742;2023-11-19T07:17:44;29.65;;;7.03;;
57131;SDS011;43005;52.922;5.742;2023-11-19T07:20:13;32.67;;;6.43;;
57131;SDS011;43005;52.922;5.742;2023-11-19T07:22:43;35.85;;;7.20;;
57131;SDS011;43005;52.922;5.742;2023-11-19T07:25:11;35.08;;;7.32;;
57131;SDS011;43005;52.922;5.742;2023-11-19T07:27:39;29.50;;;7.45;;
57131;SDS011;43005;52.922;5.742;2023-11-19T07:30:06;33.20;;;7.00;;
57131;SDS011;43005;52.922;5.742;2023-11-19T07:32:33;25.77;;;7.63;;
57131;SDS011;43005;52.922;5.742;2023-11-19T07:35:00;33.22;;;7.40;;
57131;SDS011;43005;52.922;5.742;2023-11-19T07:37:27;38.35;;;8.27;;
57131;SDS011;43005;52.922;5.742;2023-11-19T07:39:55;39.75;;;6.63;;
57131;SDS011;43005;52.922;5.742;2023-11-19T07:42:22;34.55;;;7.38;;
57131;SDS011;43005;52.922;5.742;2023-11-19T07:44:49;40.83;;;8.15;;
57131;SDS011;43005;52.922;5.742;2023-11-19T07:47:16;39.63;;;8.00;;
57131;SDS011;43005;52.922;5.742;2023-11-19T07:49:43;36.63;;;7.10;;
57131;SDS011;43005;52.922;5.742;2023-11-19T07:52:10;37.83;;;7.85;;
57131;SDS011;43005;52.922;5.742;2023-11-19T07:54:37;28.80;;;6.15;;
57131;SDS011;43005;52.922;5.742;2023-11-19T07:57:05;38.78;;;6.70;;
57131;SDS011;43005;52.922;5.742;2023-11-19T07:59:32;38.05;;;7.57;;
57131;SDS011;43005;52.922;5.742;2023-11-19T08:01:59;41.80;;;6.95;;
57131;SDS011;43005;52.922;5.742;2023-11-19T08:04:25;33.38;;;7.55;;
57131;SDS011;43005;52.922;5.742;2023-11-19T08:06:52;42.38;;;8.43;;
57131;SDS011;43005;52.922;5.742;2023-11-19T08:09:19;27.60;;;6.97;;
57131;SDS011;43005;52.922;5.742;2023-11-19T08:11:46;30.60;;;6.50;;
57131;SDS011;43005;52.922;5.742;2023-11-19T08:14:15;26.60;;;6.97;;
57131;SDS011;43005;52.922;5.742;2023-11-19T08:16:41;32.30;;;6.60;;
57131;SDS011;43005;52.922;5.742;2023-11-19T08:19:08;35.17;;;6.43;;
57131;SDS011;43005;52.922;5.742;2023-11-19T08:21:35;36.65;;;7.97;;
57131;SDS011;43005;52.922;5.742;2023-11-19T08:24:02;34.13;;;8.77;;
57131;SDS011;43005;52.922;5.742;2023-11-19T08:26:30;27.17;;;7.75;;
57131;SDS011;43005;52.922;5.742;2023-11-19T08:28:57;34.05;;;7.47;;
57131;SDS011;43005;52.922;5.742;2023-11-19T08:31:25;36.08;;;7.55;;
57131;SDS011;43005;52.922;5.742;2023-11-19T08:33:52;28.38;;;6.57;;
57131;SDS011;43005;52.922;5.742;2023-11-19T08:36:19;35.30;;;7.63;;
57131;SDS011;43005;52.922;5.742;2023-11-19T08:38:46;35.50;;;7.28;;
57131;SDS011;43005;52.922;5.742;2023-11-19T08:41:13;33.67;;;7.88;;
57131;SDS011;43005;52.922;5.742;2023-11-19T08:43:42;31.45;;;7.43;;
57131;SDS011;43005;52.922;5.742;2023-11-19T08:46:09;33.50;;;8.40;;
57131;SDS011;43005;52.922;5.742;2023-11-19T08:48:38;36.70;;;7.00;;
57131;SDS011;43005;52.922;5.742;2023-11-19T08:51:05;33.85;;;7.90;;
57131;SDS011;43005;52.922;5.742;2023-11-19T08:53:32;41.05;;;7.13;;
57131;SDS011;43005;52.922;5.742;2023-11-19T08:55:59;25.90;;;5.88;;
57131;SDS011;43005;52.922;5.742;2023-11-19T08:58:27;33.78;;;7.13;;
57131;SDS011;43005;52.922;5.742;2023-11-19T09:00:54;33.33;;;7.57;;
57131;SDS011;43005;52.922;5.742;2023-11-19T09:03:21;33.28;;;7.82;;
57131;SDS011;43005;52.922;5.742;2023-11-19T09:05:49;34.53;;;6.45;;
57131;SDS011;43005;52.922;5.742;2023-11-19T09:08:16;31.45;;;7.15;;
57131;SDS011;43005;52.922;5.742;2023-11-19T09:10:43;36.20;;;7.03;;
57131;SDS011;43005;52.922;5.742;2023-11-19T09:13:10;32.58;;;6.75;;
57131;SDS011;43005;52.922;5.742;2023-11-19T09:15:38;37.33;;;6.45;;
57131;SDS011;43005;52.922;5.742;2023-11-19T09:18:06;39.33;;;7.40;;
57131;SDS011;43005;52.922;5.742;2023-11-19T09:20:33;35.63;;;6.55;;
57131;SDS011;43005;52.922;5.742;2023-11-19T09:23:04;36.63;;;7.22;;
57131;SDS011;43005;52.922;5.742;2023-11-19T09:25:31;40.20;;;7.63;;
57131;SDS011;43005;52.922;5.742;2023-11-19T09:27:58;27.13;;;5.70;;
57131;SDS011;43005;52.922;5.742;2023-11-19T09:30:25;29.30;;;6.97;;
57131;SDS011;43005;52.922;5.742;2023-11-19T09:32:52;29.95;;;7.13;;
57131;SDS011;43005;52.922;5.742;2023-11-19T09:35:19;35.70;;;7.82;;
57131;SDS011;43005;52.922;5.742;2023-11-19T09:37:46;34.13;;;7.93;;
57131;SDS011;43005;52.922;5.742;2023-11-19T09:40:14;37.53;;;7.40;;
57131;SDS011;43005;52.922;5.742;2023-11-19T09:42:43;35.42;;;7.22;;
57131;SDS011;43005;52.922;5.742;2023-11-19T09:45:12;34.78;;;7.15;;
57131;SDS011;43005;52.922;5.742;2023-11-19T09:47:40;33.40;;;6.15;;
57131;SDS011;43005;52.922;5.742;2023-11-19T09:50:09;32.90;;;6.97;;
57131;SDS011;43005;52.922;5.742;2023-11-19T09:52:40;34.80;;;6.72;;
57131;SDS011;43005;52.922;5.742;2023-11-19T09:55:07;37.25;;;7.28;;
57131;SDS011;43005;52.922;5.742;2023-11-19T09:57:36;29.42;;;6.90;;
57131;SDS011;43005;52.922;5.742;2023-11-19T10:00:06;30.58;;;7.35;;
57131;SDS011;43005;52.922;5.742;2023-11-19T10:02:35;28.02;;;6.72;;
57131;SDS011;43005;52.922;5.742;2023-11-19T10:05:04;35.53;;;6.88;;
57131;SDS011;43005;52.922;5.742;2023-11-19T10:07:32;27.45;;;7.03;;
57131;SDS011;43005;52.922;5.742;2023-11-19T10:09:59;33.65;;;6.40;;
57131;SDS011;43005;52.922;5.742;2023-11-19T10:12:26;22.55;;;5.53;;
57131;SDS011;43005;52.922;5.742;2023-11-19T10:14:55;30.77;;;6.13;;
57131;SDS011;43005;52.922;5.742;2023-11-19T10:17:27;26.77;;;6.18;;
57131;SDS011;43005;52.922;5.742;2023-11-19T10:19:55;34.97;;;5.93;;
57131;SDS011;43005;52.922;5.742;2023-11-19T10:22:22;28.15;;;6.65;;
57131;SDS011;43005;52.922;5.742;2023-11-19T10:24:50;32.47;;;6.25;;
57131;SDS011;43005;52.922;5.742;2023-11-19T10:27:17;30.65;;;6.65;;
57131;SDS011;43005;52.922;5.742;2023-11-19T10:29:44;32.08;;;6.18;;
57131;SDS011;43005;52.922;5.742;2023-11-19T10:32:14;28.60;;;6.20;;
57131;SDS011;43005;52.922;5.742;2023-11-19T10:34:41;28.15;;;6.50;;
57131;SDS011;43005;52.922;5.742;2023-11-19T10:37:08;19.67;;;5.13;;
57131;SDS011;43005;52.922;5.742;2023-11-19T10:39:54;28.33;;;5.95;;
57131;SDS011;43005;52.922;5.742;2023-11-19T10:42:21;27.17;;;5.93;;
57131;SDS011;43005;52.922;5.742;2023-11-19T10:44:48;31.77;;;7.28;;
57131;SDS011;43005;52.922;5.742;2023-11-19T10:47:18;17.67;;;5.45;;
57131;SDS011;43005;52.922;5.742;2023-11-19T10:49:47;28.90;;;6.88;;
57131;SDS011;43005;52.922;5.742;2023-11-19T10:52:15;34.50;;;6.03;;
57131;SDS011;43005;52.922;5.742;2023-11-19T10:54:45;23.05;;;6.38;;
57131;SDS011;43005;52.922;5.742;2023-11-19T10:57:20;26.20;;;6.57;;
57131;SDS011;43005;52.922;5.742;2023-11-19T10:59:49;31.35;;;6.90;;
57131;SDS011;43005;52.922;5.742;2023-11-19T11:02:21;38.38;;;7.93;;
57131;SDS011;43005;52.922;5.742;2023-11-19T11:04:50;30.55;;;6.15;;
57131;SDS011;43005;52.922;5.742;2023-11-19T11:07:19;28.13;;;5.97;;
57131;SDS011;43005;52.922;5.742;2023-11-19T11:09:51;31.70;;;6.50;;
57131;SDS011;43005;52.922;5.742;2023-11-19T11:12:20;31.50;;;5.20;;
57131;SDS011;43005;52.922;5.742;2023-11-19T11:14:51;34.90;;;6.80;;
57131;SDS011;43005;52.922;5.742;2023-11-19T11:17:21;28.00;;;5.95;;
57131;SDS011;43005;52.922;5.742;2023-11-19T11:19:54;28.05;;;6.70;;
57131;SDS011;43005;52.922;5.742;2023-11-19T11:22:21;33.17;;;6.70;;
57131;SDS011;43005;52.922;5.742;2023-11-19T11:25:04;31.70;;;6.28;;
57131;SDS011;43005;52.922;5.742;2023-11-19T11:27:44;28.17;;;5.65;;
57131;SDS011;43005;52.922;5.742;2023-11-19T11:30:24;26.70;;;4.85;;
57131;SDS011;43005;52.922;5.742;2023-11-19T11:33:06;33.80;;;6.10;;
57131;SDS011;43005;52.922;5.742;2023-11-19T11:35:49;25.05;;;5.32;;
57131;SDS011;43005;52.922;5.742;2023-11-19T11:38:22;24.70;;;5.70;;
57131;SDS011;43005;52.922;5.742;2023-11-19T11:43:46;22.15;;;4.82;;
57131;SDS011;43005;52.922;5.742;2023-11-19T11:49:27;29.00;;;6.65;;
57131;SDS011;43005;52.922;5.742;2023-11-19T11:51:58;31.48;;;7.95;;
57131;SDS011;43005;52.922;5.742;2023-11-19T11:54:32;27.50;;;6.07;;
57131;SDS011;43005;52.922;5.742;2023-11-19T11:57:01;24.83;;;5.68;;
57131;SDS011;43005;52.922;5.742;2023-11-19T11:59:31;334.33;;;297.15;;
57131;SDS011;43005;52.922;5.742;2023-11-19T12:02:03;24.55;;;6.13;;
57131;SDS011;43005;52.922;5.742;2023-11-19T12:04:35;29.85;;;6.57;;
57131;SDS011;43005;52.922;5.742;2023-11-19T12:07:03;25.02;;;4.97;;
57131;SDS011;43005;52.922;5.742;2023-11-19T12:09:31;28.02;;;5.35;;
57131;SDS011;43005;52.922;5.742;2023-11-19T12:12:07;27.17;;;6.22;;
57131;SDS011;43005;52.922;5.742;2023-11-19T12:20:25;25.83;;;6.07;;
57131;SDS011;43005;52.922;5.742;2023-11-19T12:22:56;25.65;;;6.22;;
57131;SDS011;43005;52.922;5.742;2023-11-19T12:25:24;25.52;;;4.82;;
57131;SDS011;43005;52.922;5.742;2023-11-19T12:27:51;28.40;;;5.38;;
57131;SDS011;43005;52.922;5.742;2023-11-19T12:30:21;23.92;;;4.68;;
57131;SDS011;43005;52.922;5.742;2023-11-19T12:32:49;21.17;;;4.85;;
57131;SDS011;43005;52.922;5.742;2023-11-19T12:35:18;18.10;;;4.47;;
57131;SDS011;43005;52.922;5.742;2023-11-19T12:37:48;25.42;;;5.68;;
57131;SDS011;43005;52.922;5.742;2023-11-19T12:40:16;31.35;;;5.88;;
57131;SDS011;43005;52.922;5.742;2023-11-19T12:42:44;27.85;;;6.05;;
57131;SDS011;43005;52.922;5.742;2023-11-19T12:45:11;20.65;;;5.03;;
57131;SDS011;43005;52.922;5.742;2023-11-19T12:47:52;24.40;;;4.78;;
57131;SDS011;43005;52.922;5.742;2023-11-19T12:53:18;19.25;;;5.07;;
57131;SDS011;43005;52.922;5.742;2023-11-19T12:55:45;22.60;;;5.50;;
57131;SDS011;43005;52.922;5.742;2023-11-19T13:00:58;25.33;;;5.72;;
57131;SDS011;43005;52.922;5.742;2023-11-19T13:03:29;25.42;;;5.45;;
57131;SDS011;43005;52.922;5.742;2023-11-19T13:06:03;29.55;;;5.40;;
57131;SDS011;43005;52.922;5.742;2023-11-19T13:08:37;25.17;;;5.00;;
57131;SDS011;43005;52.922;5.742;2023-11-19T13:11:05;27.10;;;5.20;;
57131;SDS011;43005;52.922;5.742;2023-11-19T13:13:32;29.73;;;5.97;;
57131;SDS011;43005;52.922;5.742;2023-11-19T13:16:16;27.30;;;6.57;;
57131;SDS011;43005;52.922;5.742;2023-11-19T13:18:43;26.17;;;5.95;;
57131;SDS011;43005;52.922;5.742;2023-11-19T13:21:11;22.50;;;4.82;;
57131;SDS011;43005;52.922;5.742;2023-11-19T13:23:39;20.70;;;4.75;;
57131;SDS011;43005;52.922;5.742;2023-11-19T13:26:07;24.92;;;5.82;;
57131;SDS011;43005;52.922;5.742;2023-11-19T13:28:34;23.35;;;4.97;;
57131;SDS011;43005;52.922;5.742;2023-11-19T13:31:03;25.48;;;5.80;;
57131;SDS011;43005;52.922;5.742;2023-11-19T13:33:33;30.02;;;5.68;;
57131;SDS011;43005;52.922;5.742;2023-11-19T13:36:01;18.50;;;5.38;;
57131;SDS011;43005;52.922;5.742;2023-11-19T13:38:31;26.83;;;7.55;;
57131;SDS011;43005;52.922;5.742;2023-11-19T13:41:00;32.25;;;8.15;;
57131;SDS011;43005;52.922;5.742;2023-11-19T13:43:27;28.23;;;5.97;;
57131;SDS011;43005;52.922;5.742;2023-11-19T13:45:54;29.73;;;5.80;;
57131;SDS011;43005;52.922;5.742;2023-11-19T13:48:21;24.75;;;5.55;;
57131;SDS011;43005;52.922;5.742;2023-11-19T13:50:48;29.38;;;5.28;;
57131;SDS011;43005;52.922;5.742;2023-11-19T13:53:15;24.25;;;5.30;;
57131;SDS011;43005;52.922;5.742;2023-11-19T13:55:43;23.20;;;6.22;;
57131;SDS011;43005;52.922;5.742;2023-11-19T13:58:11;151.48;;;107.03;;
57131;SDS011;43005;52.922;5.742;2023-11-19T14:00:38;670.75;;;598.75;;
57131;SDS011;43005;52.922;5.742;2023-11-19T14:05:34;461.80;;;190.50;;
57131;SDS011;43005;52.922;5.742;2023-11-19T14:08:01;615.70;;;478.53;;
57131;SDS011;43005;52.922;5.742;2023-11-19T14:10:28;575.55;;;517.95;;
57131;SDS011;43005;52.922;5.742;2023-11-19T14:12:55;440.27;;;299.77;;
57131;SDS011;43005;52.922;5.742;2023-11-19T14:15:24;522.43;;;350.27;;
57131;SDS011;43005;52.922;5.742;2023-11-19T14:20:18;442.03;;;200.43;;
57131;SDS011;43005;52.922;5.742;2023-11-19T14:22:45;628.97;;;571.73;;
57131;SDS011;43005;52.922;5.742;2023-11-19T14:25:14;546.93;;;426.53;;
57131;SDS011;43005;52.922;5.742;2023-11-19T14:27:42;582.72;;;518.22;;
57131;SDS011;43005;52.922;5.742;2023-11-19T14:30:11;551.35;;;468.55;;
57131;SDS011;43005;52.922;5.742;2023-11-19T14:32:41;529.55;;;472.45;;
57131;SDS011;43005;52.922;5.742;2023-11-19T14:35:09;525.73;;;387.00;;
57131;SDS011;43005;52.922;5.742;2023-11-19T14:37:37;26.02;;;6.57;;
57131;SDS011;43005;52.922;5.742;2023-11-19T14:40:05;25.90;;;5.22;;
57131;SDS011;43005;52.922;5.742;2023-11-19T14:42:35;22.38;;;6.00;;
57131;SDS011;43005;52.922;5.742;2023-11-19T14:45:02;29.70;;;5.47;;
57131;SDS011;43005;52.922;5.742;2023-11-19T14:47:29;30.85;;;6.07;;
57131;SDS011;43005;52.922;5.742;2023-11-19T14:49:58;26.15;;;6.78;;
57131;SDS011;43005;52.922;5.742;2023-11-19T14:52:24;33.53;;;7.18;;
57131;SDS011;43005;52.922;5.742;2023-11-19T14:54:51;19.92;;;6.43;;
57131;SDS011;43005;52.922;5.742;2023-11-19T14:57:21;24.23;;;6.28;;